Historical Weather Data

Soule Park Golf Course
1033 East Ojai Ave
Ojai, CA 93023
Date ET
(Inches)
Rain
(Inches)
Temp °F
Humidity
Avg
Wind MPH
Avg
Solar Wm2
Avg
High Ave Low
11/1/16 0.09 0.00 73.1 57.0 47.2 82 1.7 163
11/2/16 0.13 0.00 82.0 60.4 43.1 60 2.5 194
11/3/16 0.14 0.00 90.5 64.9 44.9 46 2.9 188
11/4/16 0.14 0.00 88.4 67.2 50.3 46 2.8 180
11/5/16 0.12 0.00 86.4 64.0 47.3 53 2.5 178
11/6/16 0.09 0.00 77.9 59.7 44.3 69 2.4 157
11/7/16 0.10 0.00 87.6 63.0 46.7 61 2.1 156
11/8/16 0.12 0.00 94.3 68.8 50.8 46 2.5 163
11/9/16 0.14 0.00 93.0 70.3 53.4 42 3.1 160
11/10/16 0.13 0.00 90.0 67.6 51.7 41 2.8 160
11/11/16 0.12 0.00 88.4 65.8 47.3 40 2.3 157
11/12/16 0.09 0.00 84.5 65.1 51.9 41 2.3 119
11/13/16 0.11 0.00 89.1 65.3 47.8 43 2.4 150
11/14/16 0.11 0.00 90.7 65.4 48.0 44 2.3 148
11/15/16 0.09 0.00 83.9 60.6 45.0 55 2.3 132
11/16/16 0.08 0.00 74.7 55.0 42.5 59 2.8 119
11/17/16 0.09 0.00 72.1 52.1 35.6 44 2.6 142
11/18/16 0.11 0.00 76.7 54.7 38.0 33 3.0 140
11/19/16 0.09 0.00 76.9 52.6 34.8 46 2.5 136
11/20/16 0.05 0.24 70.6 52.4 37.7 67 2.3 86
11/21/16 0.07 0.00 69.9 56.0 44.4 78 2.6 138
11/22/16 0.07 0.00 70.8 52.1 37.8 71 2.4 127
11/23/16 0.07 0.00 73.3 52.4 37.3 65 2.4 117
11/24/16 0.09 0.00 81.1 54.7 36.5 49 2.3 127
11/25/16 0.09 0.00 78.8 52.2 34.4 46 2.2 128
11/26/16 0.04 0.31 61.6 44.0 31.1 77 2.2 77
11/27/16 0.06 0.00 65.6 47.4 35.7 79 2.4 97
11/28/16 0.06 0.00 65.9 48.6 34.8 73 2.4 99
11/29/16 0.08 0.00 69.0 51.4 36.2 56 2.7 114
11/30/16 0.08 0.00 66.9 48.0 33.6 59 2.6 110